KTYR/TYR METAR and TAF weather

Enter ICAO airport designator
Station Type Date Time Source
KTYR METAR 2022/01/29 10:53 UTC NOAA

KTYR 291053Z AUTO 15004KT 10SM CLR M01/M04 A3038 RMK AO2 SLP287 T10111039


Station Type Date Time Source
KTYR Decoded METAR 2022/01/29 10:53 UTC NOAA

TYLER POUNDS FIELDS, TX, United States (KTYR) 32-21N 095-24W 165M
Jan 29, 2022 - 05:53 AM EST / 2022.01.29 1053 UTC
Wind: from the SSE (150 degrees) at 5 MPH (4 KT):0
Visibility: 10 mile(s):0
Sky conditions: clear
Temperature: 30.0 F (-1.1 C)
Windchill: 24 F (-4 C):1
Dew Point: 25.0 F (-3.9 C)
Relative Humidity: 81%
Pressure (altimeter): 30.38 in. Hg (1028 hPa)
ob: KTYR 291053Z AUTO 15004KT 10SM CLR M01/M04 A3038 RMK AO2 SLP287 T10111039
cycle: 11

Station Type Date Time Source
KTYR TAF 2022/01/29 06:22 UTC NOAA

TAF KTYR 290520Z 2906/3006 00000KT P6SM SKC
FM291500 19008KT P6SM SKC
FM291800 23013G19KT P6SM SKC
FM292300 22010KT P6SM SKC

Example: see airport list